createdAt,value
2018-07-03T00:00:41.441Z,19.33
2018-07-03T00:01:41.478Z,19.19
2018-07-03T00:02:41.519Z,19.16
2018-07-03T00:03:41.550Z,19.26
2018-07-03T00:04:41.606Z,19.28
2018-07-03T00:05:41.623Z,19.21
2018-07-03T00:07:42.525Z,19.14
2018-07-03T00:08:41.731Z,19.13
2018-07-03T00:09:41.787Z,19.11
2018-07-03T00:10:42.027Z,19.10
2018-07-03T00:11:41.841Z,19.14
2018-07-03T00:12:41.896Z,19.11
2018-07-03T00:13:41.931Z,19.22
2018-07-03T00:14:42.576Z,19.13
2018-07-03T00:20:42.590Z,19.18
2018-07-03T00:22:42.261Z,19.14
2018-07-03T00:26:33.610Z,19.28
2018-07-03T00:40:29.300Z,18.76
2018-07-03T00:41:29.964Z,18.73
2018-07-03T00:45:32.910Z,18.73
2018-07-03T00:46:29.536Z,18.65
2018-07-03T00:48:29.812Z,18.73
2018-07-03T00:49:29.622Z,18.73
2018-07-03T00:50:29.659Z,18.75
2018-07-03T00:51:29.695Z,18.76
2018-07-03T00:52:29.735Z,18.76
2018-07-03T00:54:29.804Z,18.69
2018-07-03T00:55:29.866Z,18.66
2018-07-03T00:56:30.299Z,18.72
2018-07-03T00:57:30.132Z,18.73
2018-07-03T00:59:29.999Z,18.66
2018-07-03T01:00:30.021Z,18.73
2018-07-03T01:01:30.077Z,18.73
2018-07-03T01:02:30.110Z,18.76
2018-07-03T01:03:30.129Z,18.65
2018-07-03T01:04:30.165Z,18.78
2018-07-03T01:05:30.199Z,18.78
2018-07-03T01:06:30.256Z,18.70
2018-07-03T01:07:30.272Z,18.75
2018-07-03T01:08:30.309Z,18.76
2018-07-03T01:09:30.363Z,18.81
2018-07-03T01:10:30.398Z,18.72
2018-07-03T01:11:30.416Z,18.60
2018-07-03T01:12:30.470Z,18.58
2018-07-03T01:13:31.519Z,18.52
2018-07-03T01:14:30.524Z,18.54
2018-07-03T01:16:30.597Z,18.57
2018-07-03T01:17:30.853Z,18.55
2018-07-03T01:19:30.929Z,18.62
2018-07-03T01:20:30.740Z,18.54
2018-07-03T01:21:30.794Z,18.54
2018-07-03T01:22:30.811Z,18.75
2018-07-03T01:23:30.848Z,18.62
2018-07-03T01:24:30.905Z,18.78
2018-07-03T01:25:30.920Z,18.47
2018-07-03T01:26:30.956Z,18.42
2018-07-03T01:27:30.993Z,18.47
2018-07-03T01:28:31.029Z,18.51
2018-07-03T01:29:31.064Z,18.44
2018-07-03T01:30:31.425Z,18.54
2018-07-03T01:31:31.136Z,18.45
2018-07-03T01:32:31.173Z,18.51
2018-07-03T01:33:31.226Z,18.67
2018-07-03T01:34:31.253Z,18.58
2018-07-03T01:35:31.299Z,18.69
2018-07-03T01:36:31.335Z,18.66
2018-07-03T01:37:31.371Z,18.55
2018-07-03T01:38:31.406Z,18.57
2018-07-03T01:39:31.443Z,18.62
2018-07-03T01:40:31.464Z,18.55
2018-07-03T01:41:31.516Z,18.69
2018-07-03T01:42:31.553Z,18.67
2018-07-03T01:43:31.567Z,18.69
2018-07-03T01:44:31.625Z,18.75
2018-07-03T01:45:31.659Z,18.78
2018-07-03T01:47:32.039Z,18.75
2018-07-03T01:48:31.749Z,18.73
2018-07-03T01:49:31.784Z,18.75
2018-07-03T01:50:31.819Z,18.63
2018-07-03T01:51:32.180Z,18.66
2018-07-03T01:52:31.892Z,18.58
2018-07-03T01:53:31.928Z,18.57
2018-07-03T01:54:31.964Z,18.45
2018-07-03T01:55:32.000Z,18.58
2018-07-03T01:56:32.037Z,18.48
2018-07-03T01:57:32.072Z,18.45
2018-07-03T01:58:32.410Z,18.44
2018-07-03T01:59:32.467Z,18.50
2018-07-03T02:00:32.197Z,18.51
2018-07-03T02:01:32.214Z,18.54
2018-07-03T02:02:32.273Z,18.48
2018-07-03T02:03:32.287Z,18.41
2018-07-03T02:04:32.525Z,18.37
2018-07-03T02:05:32.358Z,18.39
2018-07-03T02:06:32.394Z,18.35
2018-07-03T02:07:32.431Z,18.33
2018-07-03T02:08:32.466Z,18.29
2018-07-03T02:09:32.505Z,18.27
2018-07-03T02:10:32.535Z,18.29
2018-07-03T02:11:32.574Z,18.26
2018-07-03T02:12:32.609Z,18.23
2018-07-03T02:13:32.644Z,18.23
2018-07-03T02:14:32.680Z,18.18
2018-07-03T02:15:32.717Z,18.29
2018-07-03T02:16:32.752Z,18.21
2018-07-03T02:17:32.788Z,18.20
2018-07-03T02:18:32.821Z,18.21
2018-07-03T02:19:32.859Z,18.20
2018-07-03T02:20:33.219Z,18.23
2018-07-03T02:21:32.930Z,18.12
2018-07-03T02:22:32.966Z,18.20
2018-07-03T02:23:33.002Z,18.11
2018-07-03T02:24:33.037Z,18.08
2018-07-03T02:25:33.073Z,18.11
2018-07-03T02:26:33.107Z,18.05
2018-07-03T02:27:33.144Z,18.08
2018-07-03T02:28:33.183Z,18.10
2018-07-03T02:29:33.214Z,18.14
2018-07-03T02:30:33.254Z,17.99
2018-07-03T02:31:33.286Z,17.96
2018-07-03T02:32:33.546Z,17.95
2018-07-03T02:33:33.378Z,17.99
2018-07-03T02:34:33.397Z,18.02
2018-07-03T02:35:33.428Z,17.96
2018-07-03T02:36:33.465Z,17.99
2018-07-03T02:37:33.503Z,17.95
2018-07-03T02:38:33.535Z,17.82
2018-07-03T02:39:33.571Z,17.90
2018-07-03T02:40:33.606Z,17.79
2018-07-03T02:41:33.664Z,17.81
2018-07-03T02:42:33.677Z,17.72
2018-07-03T02:43:33.738Z,17.74
2018-07-03T02:44:33.770Z,17.66
2018-07-03T02:45:33.783Z,17.59
2018-07-03T02:46:33.821Z,17.64
2018-07-03T02:47:34.179Z,17.58
2018-07-03T02:48:34.215Z,17.59
2018-07-03T02:49:34.961Z,17.55
2018-07-03T02:50:33.984Z,17.56
2018-07-03T02:51:34.001Z,17.56
2018-07-03T02:52:34.052Z,17.56
2018-07-03T02:53:34.088Z,17.58
2018-07-03T02:54:35.642Z,17.51
2018-07-03T02:55:34.159Z,17.59
2018-07-03T02:57:34.429Z,17.70
2018-07-03T02:58:34.247Z,17.72
2018-07-03T02:59:34.499Z,17.81
2018-07-03T03:00:34.335Z,17.86
2018-07-03T03:01:34.368Z,17.93
2018-07-03T03:03:34.439Z,17.95
2018-07-03T03:04:34.786Z,17.93
2018-07-03T03:05:34.507Z,17.87
2018-07-03T03:06:34.563Z,17.84
2018-07-03T03:07:34.582Z,17.86
2018-07-03T03:08:34.623Z,17.82
2018-07-03T03:09:34.632Z,17.82
2018-07-03T03:10:34.698Z,17.82
2018-07-03T03:11:34.722Z,17.72
2018-07-03T03:12:34.758Z,17.70
2018-07-03T03:14:34.832Z,17.59
2018-07-03T03:15:34.862Z,17.59
2018-07-03T03:16:34.900Z,17.64
2018-07-03T03:17:34.935Z,17.68
2018-07-03T03:18:34.969Z,17.55
2018-07-03T03:19:36.422Z,17.58
2018-07-03T03:22:35.168Z,17.55
2018-07-03T03:23:35.127Z,17.66
2018-07-03T03:26:35.455Z,17.52
2018-07-03T03:29:35.766Z,17.51
2018-07-03T03:30:35.396Z,17.36
2018-07-03T03:32:35.748Z,17.31
2018-07-03T03:33:35.501Z,17.23
2018-07-03T03:34:35.733Z,17.23
2018-07-03T03:35:35.774Z,17.22
2018-07-03T03:36:35.604Z,17.23
2018-07-03T03:37:36.042Z,17.26
2018-07-03T03:40:35.726Z,17.36
2018-07-03T03:42:36.019Z,17.43
2018-07-03T03:46:35.958Z,17.36
2018-07-03T03:48:36.740Z,17.37
2018-07-03T03:49:36.972Z,17.49
2018-07-03T03:51:36.132Z,17.46
2018-07-03T03:52:36.572Z,17.52
2018-07-03T03:55:36.655Z,17.49
2018-07-03T03:56:36.507Z,17.51
2018-07-03T03:57:36.321Z,17.49
2018-07-03T03:58:36.375Z,17.43
2018-07-03T04:00:38.573Z,17.36
2018-07-03T04:01:36.683Z,17.37
2018-07-03T04:03:36.760Z,17.21
2018-07-03T04:04:36.598Z,17.25
2018-07-03T04:05:36.622Z,17.19
2018-07-03T04:06:36.856Z,17.21
2018-07-03T04:08:36.928Z,17.22
2018-07-03T04:09:36.962Z,17.25
2018-07-03T04:10:37.507Z,17.25
2018-07-03T04:11:37.237Z,17.34
2018-07-03T04:12:37.378Z,17.38
2018-07-03T04:13:37.104Z,17.31
2018-07-03T04:14:37.137Z,17.34
2018-07-03T04:15:37.374Z,17.25
2018-07-03T04:27:37.392Z,17.34
2018-07-03T04:28:37.427Z,17.34
2018-07-03T04:32:37.876Z,17.52
2018-07-03T04:33:38.011Z,17.56
2018-07-03T04:37:38.150Z,17.74
2018-07-03T04:38:37.981Z,17.78
2018-07-03T04:40:37.852Z,17.89
2018-07-03T04:41:37.884Z,18.00
2018-07-03T04:45:38.227Z,18.11
2018-07-03T04:48:38.135Z,18.33
2018-07-03T04:49:38.169Z,18.32
2018-07-03T04:52:38.274Z,18.37
2018-07-03T04:53:38.291Z,18.36
2018-07-03T04:54:38.327Z,18.42
2018-07-03T04:55:38.379Z,18.45
2018-07-03T04:56:38.399Z,18.52
2018-07-03T04:57:38.455Z,18.54
2018-07-03T04:58:38.469Z,18.58
2018-07-03T04:59:38.506Z,18.62
2018-07-03T05:00:38.539Z,18.81
2018-07-03T05:01:38.576Z,18.84
2018-07-03T05:02:38.612Z,18.98
2018-07-03T05:03:38.648Z,19.04
2018-07-03T05:04:38.683Z,19.04
2018-07-03T05:05:38.740Z,19.07
2018-07-03T05:06:38.754Z,19.16
2018-07-03T05:07:38.809Z,19.14
2018-07-03T05:08:38.847Z,19.13
2018-07-03T05:09:38.861Z,19.26
2018-07-03T05:10:38.898Z,19.28
2018-07-03T05:11:38.936Z,19.25
2018-07-03T05:12:38.988Z,19.14
2018-07-03T05:13:39.005Z,19.16
2018-07-03T05:14:39.040Z,19.11
2018-07-03T05:15:39.078Z,19.26
2018-07-03T05:16:39.115Z,19.22
2018-07-03T05:17:39.149Z,19.32
2018-07-03T05:18:39.185Z,19.29
2018-07-03T05:19:39.222Z,19.41
2018-07-03T05:20:39.258Z,19.47
2018-07-03T05:21:39.293Z,19.47
2018-07-03T05:22:39.330Z,19.51
2018-07-03T05:23:39.367Z,19.59
2018-07-03T05:24:39.457Z,19.55
2018-07-03T05:25:39.438Z,19.65
2018-07-03T05:26:39.475Z,19.74
2018-07-03T05:27:39.512Z,19.77
2018-07-03T05:28:39.549Z,19.81
2018-07-03T05:29:39.585Z,19.80
2018-07-03T05:30:39.621Z,19.99
2018-07-03T05:31:39.745Z,19.98
2018-07-03T05:32:39.694Z,20.08
2018-07-03T05:33:39.730Z,20.17
2018-07-03T05:34:39.969Z,20.23
2018-07-03T05:35:39.806Z,20.32
2018-07-03T05:36:39.841Z,20.29
2018-07-03T05:37:39.876Z,20.33
2018-07-03T05:38:39.914Z,20.42
2018-07-03T05:39:39.951Z,20.36
2018-07-03T05:40:39.988Z,20.51
2018-07-03T05:41:40.025Z,20.59
2018-07-03T05:42:40.062Z,20.58
2018-07-03T05:43:40.099Z,20.79
2018-07-03T05:44:40.135Z,20.77
2018-07-03T05:45:40.171Z,20.80
2018-07-03T05:46:40.209Z,20.92
2018-07-03T05:47:40.247Z,20.97
2018-07-03T05:48:40.284Z,20.99
2018-07-03T05:49:40.320Z,20.99
2018-07-03T05:50:40.358Z,21.10
2018-07-03T05:51:40.394Z,21.16
2018-07-03T05:52:40.432Z,21.22
2018-07-03T05:53:40.471Z,21.28
2018-07-03T05:54:40.506Z,21.35
2018-07-03T05:55:40.549Z,21.47
2018-07-03T05:56:40.581Z,21.46
2018-07-03T05:57:40.617Z,21.62
2018-07-03T05:58:40.656Z,21.83
2018-07-03T05:59:40.692Z,22.02
2018-07-03T06:00:40.731Z,22.14
2018-07-03T06:01:40.768Z,22.17
2018-07-03T06:02:40.806Z,22.36
2018-07-03T06:03:40.843Z,22.35
2018-07-03T06:04:40.880Z,22.46
2018-07-03T06:05:40.916Z,22.52
2018-07-03T06:06:40.960Z,22.57
2018-07-03T06:07:40.995Z,22.46
2018-07-03T06:08:41.078Z,22.40
2018-07-03T06:09:41.069Z,22.43
2018-07-03T06:10:41.107Z,22.57
2018-07-03T06:11:41.146Z,22.47
2018-07-03T06:12:41.183Z,22.52
2018-07-03T06:13:41.221Z,22.61
2018-07-03T06:14:41.259Z,22.76
2018-07-03T06:15:41.296Z,22.76
2018-07-03T06:16:41.336Z,22.68
2018-07-03T06:17:41.374Z,22.91
2018-07-03T06:18:41.411Z,22.92
2018-07-03T06:19:41.451Z,22.98
2018-07-03T06:20:41.490Z,22.92
2018-07-03T06:21:41.527Z,22.95
2018-07-03T06:22:41.584Z,23.17
2018-07-03T06:23:41.605Z,23.40
2018-07-03T06:24:41.644Z,23.38
2018-07-03T06:25:41.682Z,23.61
2018-07-03T06:26:41.721Z,23.60
2018-07-03T06:27:41.758Z,23.55
2018-07-03T06:28:41.808Z,23.47
2018-07-03T06:29:41.837Z,23.32
2018-07-03T06:30:41.876Z,23.47
2018-07-03T06:31:41.914Z,23.58
2018-07-03T06:32:41.954Z,23.80
2018-07-03T06:33:41.992Z,23.88
2018-07-03T06:34:42.031Z,23.84
2018-07-03T06:35:42.070Z,23.87
2018-07-03T06:36:42.112Z,24.00
2018-07-03T06:37:42.231Z,24.05
2018-07-03T06:38:42.188Z,24.09
2018-07-03T06:39:42.228Z,23.93
2018-07-03T06:40:42.267Z,23.97
2018-07-03T06:41:42.307Z,23.95
2018-07-03T06:42:42.344Z,24.03
2018-07-03T06:43:42.384Z,23.93
2018-07-03T06:44:42.481Z,23.66
2018-07-03T06:45:42.461Z,23.55
2018-07-03T06:46:42.501Z,23.60
2018-07-03T06:47:42.540Z,23.70
2018-07-03T06:48:42.579Z,23.80
2018-07-03T06:49:42.618Z,23.84
2018-07-03T06:50:42.755Z,23.70
2018-07-03T06:51:42.737Z,23.87
2018-07-03T06:52:42.741Z,24.00
2018-07-03T06:53:42.802Z,23.91
2018-07-03T06:54:42.816Z,23.88
2018-07-03T06:55:42.855Z,24.02
2018-07-03T06:56:42.898Z,24.16
2018-07-03T06:57:42.934Z,24.15
2018-07-03T06:58:42.973Z,24.18
2018-07-03T06:59:43.013Z,24.10
2018-07-03T07:00:43.052Z,24.02
2018-07-03T07:01:43.092Z,24.13
2018-07-03T07:02:43.132Z,23.90
2018-07-03T07:03:43.171Z,24.05
2018-07-03T07:04:43.211Z,24.02
2018-07-03T07:05:43.252Z,23.87
2018-07-03T07:06:43.294Z,23.88
2018-07-03T07:07:43.339Z,24.06
2018-07-03T07:08:43.454Z,24.03
2018-07-03T07:09:43.411Z,23.80
2018-07-03T07:10:43.449Z,24.05
2018-07-03T07:11:43.489Z,24.20
2018-07-03T07:12:43.530Z,24.32
2018-07-03T07:13:43.569Z,24.31
2018-07-03T07:14:43.609Z,24.35
2018-07-03T07:15:43.649Z,24.62
2018-07-03T07:16:43.689Z,24.57
2018-07-03T07:17:43.728Z,24.37
2018-07-03T07:18:43.767Z,24.58
2018-07-03T07:19:43.808Z,24.46
2018-07-03T07:20:43.848Z,24.64
2018-07-03T07:21:43.887Z,24.64
2018-07-03T07:22:43.931Z,24.80
2018-07-03T07:23:43.968Z,24.65
2018-07-03T07:24:44.008Z,24.68
2018-07-03T07:25:44.048Z,24.71
2018-07-03T07:26:44.088Z,24.80
2018-07-03T07:27:44.127Z,24.98
2018-07-03T07:28:44.168Z,24.98
2018-07-03T07:29:44.207Z,24.80
2018-07-03T07:30:44.247Z,24.93
2018-07-03T07:31:44.287Z,24.95
2018-07-03T07:32:44.335Z,24.87
2018-07-03T07:33:44.367Z,24.67
2018-07-03T07:34:44.407Z,24.64
2018-07-03T07:35:44.448Z,24.61
2018-07-03T07:36:44.815Z,24.65
2018-07-03T07:37:44.528Z,24.50
2018-07-03T07:38:44.569Z,24.67
2018-07-03T07:39:44.612Z,24.73
2018-07-03T07:40:44.649Z,24.87
2018-07-03T07:41:44.689Z,24.85
2018-07-03T07:42:44.759Z,25.06
2018-07-03T07:43:44.769Z,24.85
2018-07-03T07:44:44.809Z,24.61
2018-07-03T07:45:44.849Z,24.71
2018-07-03T07:46:44.891Z,24.85
2018-07-03T07:47:44.931Z,24.91
2018-07-03T07:48:44.971Z,24.93
2018-07-03T07:49:45.016Z,24.98
2018-07-03T07:50:45.053Z,25.00
2018-07-03T07:51:45.093Z,24.93
2018-07-03T07:52:45.132Z,24.88
2018-07-03T07:53:45.173Z,24.83
2018-07-03T07:54:45.212Z,24.85
2018-07-03T07:55:45.252Z,24.71
2018-07-03T07:56:45.292Z,24.69
2018-07-03T07:57:45.381Z,24.53
2018-07-03T07:58:45.373Z,24.58
2018-07-03T07:59:45.412Z,24.45
2018-07-03T08:00:45.655Z,24.24
2018-07-03T08:01:45.517Z,24.09
2018-07-03T08:02:45.533Z,23.78
2018-07-03T08:03:45.593Z,23.47
2018-07-03T08:04:45.616Z,23.43
2018-07-03T08:05:45.656Z,23.72
2018-07-03T08:06:45.760Z,23.88
2018-07-03T08:07:45.734Z,24.02
2018-07-03T08:08:45.776Z,24.00
2018-07-03T08:09:45.813Z,23.78
2018-07-03T08:10:45.853Z,24.12
2018-07-03T08:11:45.893Z,24.20
2018-07-03T08:12:45.934Z,24.30
2018-07-03T08:13:45.974Z,24.57
2018-07-03T08:14:46.014Z,24.65
2018-07-03T08:15:46.054Z,24.99
2018-07-03T08:16:46.098Z,24.99
2018-07-03T08:17:46.134Z,24.99
2018-07-03T08:18:46.174Z,24.96
2018-07-03T08:19:46.215Z,24.98
2018-07-03T08:20:46.255Z,24.98
2018-07-03T08:21:46.305Z,24.85
2018-07-03T08:22:46.344Z,24.81
2018-07-03T08:23:46.377Z,24.90
2018-07-03T08:24:46.417Z,24.96
2018-07-03T08:25:46.455Z,24.95
2018-07-03T08:26:46.500Z,25.02
2018-07-03T08:27:46.538Z,25.25
2018-07-03T08:28:46.577Z,25.32
2018-07-03T08:29:46.617Z,25.24
2018-07-03T08:30:46.660Z,25.20
2018-07-03T08:31:46.739Z,25.15
2018-07-03T08:32:46.738Z,25.08
2018-07-03T08:33:46.782Z,24.88
2018-07-03T08:34:46.818Z,24.80
2018-07-03T08:35:46.859Z,24.73
2018-07-03T08:36:46.900Z,24.93
2018-07-03T08:37:46.966Z,24.95
2018-07-03T08:38:46.979Z,25.21
2018-07-03T08:39:47.020Z,25.30
2018-07-03T08:40:47.061Z,25.32
2018-07-03T08:41:47.099Z,25.47
2018-07-03T08:42:47.176Z,25.69
2018-07-03T08:43:47.181Z,25.75
2018-07-03T08:44:47.221Z,25.57
2018-07-03T08:45:47.261Z,25.50
2018-07-03T08:46:47.308Z,25.51
2018-07-03T08:47:47.343Z,25.72
2018-07-03T08:48:47.383Z,25.77
2018-07-03T08:49:47.422Z,25.90
2018-07-03T08:50:47.463Z,25.95
2018-07-03T08:51:47.613Z,25.77
2018-07-03T08:52:47.544Z,25.92
2018-07-03T08:53:47.583Z,26.06
2018-07-03T08:54:47.627Z,26.13
2018-07-03T08:55:47.665Z,26.15
2018-07-03T08:56:47.705Z,25.99
2018-07-03T08:57:47.750Z,26.13
2018-07-03T08:58:47.785Z,26.18
2018-07-03T08:59:47.826Z,26.12
2018-07-03T09:00:47.880Z,26.17
2018-07-03T09:01:47.908Z,26.33
2018-07-03T09:02:47.949Z,26.36
2018-07-03T09:03:48.017Z,26.47
2018-07-03T09:04:48.065Z,26.66
2018-07-03T09:05:54.339Z,26.48
2018-07-03T09:06:48.111Z,26.55
2018-07-03T09:07:48.151Z,26.66
2018-07-03T09:08:48.194Z,26.84
2018-07-03T09:09:48.231Z,27.10
2018-07-03T09:10:48.272Z,27.36
2018-07-03T09:11:48.315Z,27.07
2018-07-03T09:12:48.357Z,26.88
2018-07-03T09:13:48.396Z,27.12
2018-07-03T09:14:48.437Z,27.29
2018-07-03T09:15:48.483Z,27.46
2018-07-03T09:16:48.548Z,27.51
2018-07-03T09:17:48.572Z,27.60
2018-07-03T09:18:48.607Z,27.99
2018-07-03T09:19:48.645Z,28.04
2018-07-03T09:20:48.687Z,28.12
2018-07-03T09:21:48.727Z,28.27
2018-07-03T09:22:48.771Z,28.24
2018-07-03T09:23:48.815Z,28.40
2018-07-03T09:24:48.852Z,28.25
2018-07-03T09:25:48.895Z,28.43
2018-07-03T09:26:48.936Z,28.46
2018-07-03T09:27:48.980Z,28.64
2018-07-03T09:28:49.021Z,28.44
2018-07-03T09:29:49.063Z,28.59
2018-07-03T09:30:49.108Z,28.61
2018-07-03T09:31:49.147Z,28.68
2018-07-03T09:32:49.190Z,29.02
2018-07-03T09:33:49.248Z,28.83
2018-07-03T09:34:49.274Z,28.68
2018-07-03T09:35:49.316Z,28.62
2018-07-03T09:36:49.532Z,28.66
2018-07-03T09:37:49.400Z,28.95
2018-07-03T09:38:49.443Z,29.05
2018-07-03T09:39:49.485Z,29.15
2018-07-03T09:40:49.531Z,29.31
2018-07-03T09:41:49.573Z,29.42
2018-07-03T09:42:49.612Z,29.24
2018-07-03T09:43:49.660Z,29.09
2018-07-03T09:44:49.697Z,29.14
2018-07-03T09:45:49.744Z,28.92
2018-07-03T09:46:49.784Z,29.15
2018-07-03T09:47:49.825Z,29.43
2018-07-03T09:48:49.882Z,29.48
2018-07-03T09:49:49.912Z,29.67
2018-07-03T09:50:49.956Z,29.79
2018-07-03T09:51:49.998Z,30.02
2018-07-03T09:52:50.042Z,29.80
2018-07-03T09:53:50.085Z,30.08
2018-07-03T09:54:50.238Z,30.35
2018-07-03T09:55:50.171Z,29.15
2018-07-03T09:56:50.214Z,29.18
2018-07-03T09:57:50.308Z,29.09
2018-07-03T09:58:50.301Z,28.48
2018-07-03T09:59:50.345Z,28.48
2018-07-03T10:00:50.388Z,28.54
2018-07-03T10:01:50.431Z,28.48
2018-07-03T10:02:50.473Z,28.18
2018-07-03T10:03:50.518Z,28.29
2018-07-03T10:04:50.561Z,28.61
2018-07-03T10:05:50.607Z,28.74
2018-07-03T10:06:50.646Z,28.78
2018-07-03T10:07:50.691Z,28.90
2018-07-03T10:08:50.737Z,28.86
2018-07-03T10:09:50.778Z,28.19
2018-07-03T10:10:50.821Z,27.88
2018-07-03T10:11:50.865Z,27.60
2018-07-03T10:12:50.910Z,27.85
2018-07-03T10:13:50.950Z,27.96
2018-07-03T10:14:50.995Z,28.02
2018-07-03T10:15:51.038Z,27.94
2018-07-03T10:16:51.081Z,28.17
2018-07-03T10:17:51.122Z,27.99
2018-07-03T10:18:51.209Z,27.84
2018-07-03T10:19:51.214Z,27.72
2018-07-03T10:20:51.252Z,27.81
2018-07-03T10:21:51.296Z,27.72
2018-07-03T10:22:51.338Z,27.93
2018-07-03T10:23:51.381Z,28.54
2018-07-03T10:24:51.424Z,28.62
2018-07-03T10:25:51.467Z,28.61
2018-07-03T10:26:51.508Z,28.34
2018-07-03T10:27:51.553Z,28.39
2018-07-03T10:28:51.595Z,28.73
2018-07-03T10:29:51.637Z,28.92
2018-07-03T10:30:51.684Z,29.31
2018-07-03T10:31:51.725Z,29.37
2018-07-03T10:32:51.772Z,28.70
2018-07-03T10:33:51.808Z,28.59
2018-07-03T10:34:51.852Z,28.52
2018-07-03T10:35:51.896Z,28.88
2018-07-03T10:36:51.939Z,29.37
2018-07-03T10:37:51.981Z,29.09
2018-07-03T10:38:52.027Z,28.64
2018-07-03T10:39:52.067Z,28.80
2018-07-03T10:40:52.112Z,28.90
2018-07-03T10:41:52.153Z,29.15
2018-07-03T10:42:52.197Z,29.16
2018-07-03T10:43:52.248Z,29.45
2018-07-03T10:44:52.284Z,30.16
2018-07-03T10:45:52.326Z,30.83
2018-07-03T10:46:52.370Z,31.28
2018-07-03T10:47:52.415Z,31.81
2018-07-03T10:48:52.510Z,32.38
2018-07-03T10:49:52.502Z,33.11
2018-07-03T10:50:52.546Z,33.60
2018-07-03T10:51:52.593Z,33.72
2018-07-03T10:52:52.637Z,33.84
2018-07-03T10:53:52.681Z,34.00
2018-07-03T10:54:52.727Z,33.76
2018-07-03T10:55:52.774Z,32.57
2018-07-03T10:56:52.821Z,32.41
2018-07-03T10:57:52.867Z,32.40
2018-07-03T10:59:52.962Z,33.31
2018-07-03T11:00:55.835Z,33.47
2018-07-03T11:01:56.893Z,33.69
2018-07-03T11:02:54.117Z,34.49
2018-07-03T11:03:53.154Z,35.25
2018-07-03T11:04:53.202Z,34.80
2018-07-03T11:05:53.252Z,33.97
2018-07-03T11:06:53.300Z,33.35
2018-07-03T11:07:53.351Z,32.84
2018-07-03T11:08:53.400Z,31.95
2018-07-03T11:09:53.449Z,32.63
2018-07-03T11:10:53.498Z,32.62
2018-07-03T11:11:53.547Z,32.59
2018-07-03T11:12:53.600Z,32.22
2018-07-03T11:13:53.715Z,32.45
2018-07-03T11:14:53.695Z,32.78
2018-07-03T11:15:53.748Z,32.44
2018-07-03T11:16:53.793Z,33.21
2018-07-03T11:17:53.842Z,33.86
2018-07-03T11:18:53.890Z,34.21
2018-07-03T11:19:54.069Z,33.84
2018-07-03T11:20:53.989Z,33.63
2018-07-03T11:21:54.036Z,34.28
2018-07-03T11:22:54.086Z,35.09
2018-07-03T11:24:54.185Z,36.07
2018-07-03T11:25:54.238Z,35.37
2018-07-03T11:26:54.284Z,34.82
2018-07-03T11:27:54.334Z,34.30
2018-07-03T11:28:54.415Z,33.41
2018-07-03T11:29:54.432Z,32.96
2018-07-03T11:30:54.482Z,32.81
2018-07-03T11:31:54.532Z,32.33
2018-07-03T11:32:54.581Z,32.23
2018-07-03T11:33:54.629Z,31.35
2018-07-03T11:34:54.678Z,31.17
2018-07-03T11:35:54.727Z,31.35
2018-07-03T11:36:54.776Z,31.66
2018-07-03T11:37:54.823Z,31.99
2018-07-03T11:38:54.872Z,31.43
2018-07-03T11:39:54.920Z,31.63
2018-07-03T11:40:54.968Z,31.88
2018-07-03T11:41:55.015Z,32.69
2018-07-03T11:42:55.118Z,32.93
2018-07-03T11:43:55.111Z,33.07
2018-07-03T11:44:55.159Z,33.42
2018-07-03T11:45:55.206Z,33.18
2018-07-03T11:46:55.253Z,32.78
2018-07-03T11:47:55.301Z,32.62
2018-07-03T11:48:55.348Z,32.52
2018-07-03T11:49:55.395Z,32.72
2018-07-03T11:50:55.443Z,32.75
2018-07-03T11:51:55.490Z,33.18
2018-07-03T11:52:55.538Z,34.15
2018-07-03T11:53:55.583Z,35.94
2018-07-03T11:54:55.632Z,37.39
2018-07-03T11:55:55.680Z,37.31
2018-07-03T11:56:55.729Z,37.32
2018-07-03T11:57:59.209Z,38.26
2018-07-03T11:58:55.826Z,38.06
2018-07-03T11:59:55.876Z,38.46
2018-07-03T12:00:55.925Z,38.41
2018-07-03T12:01:55.975Z,37.57
2018-07-03T12:02:56.026Z,36.59
2018-07-03T12:03:56.095Z,37.27
2018-07-03T12:04:56.127Z,37.85
2018-07-03T12:05:56.180Z,38.54
2018-07-03T12:06:56.229Z,38.46
2018-07-03T12:07:56.284Z,38.32
2018-07-03T12:08:56.555Z,38.53
2018-07-03T12:09:56.385Z,38.93
2018-07-03T12:10:56.864Z,38.69
2018-07-03T12:11:56.506Z,38.79
2018-07-03T12:12:56.565Z,38.41
2018-07-03T12:13:56.596Z,38.78
2018-07-03T12:14:56.661Z,39.29
2018-07-03T12:15:56.706Z,40.58
2018-07-03T12:16:56.760Z,40.51
2018-07-03T12:17:56.810Z,39.55
2018-07-03T12:18:56.864Z,39.38
2018-07-03T12:19:57.003Z,38.13
2018-07-03T12:20:56.973Z,38.22
2018-07-03T12:21:57.027Z,39.23
2018-07-03T12:22:57.159Z,39.94
2018-07-03T12:23:57.171Z,40.16
2018-07-03T12:24:57.198Z,40.20
2018-07-03T12:25:57.245Z,39.77
2018-07-03T12:26:57.299Z,38.68
2018-07-03T12:27:57.355Z,36.80
2018-07-03T12:28:57.528Z,36.99
2018-07-03T12:29:57.464Z,36.68
2018-07-03T12:30:57.519Z,36.88
2018-07-03T12:31:57.574Z,36.15
2018-07-03T12:32:57.678Z,35.53
2018-07-03T12:36:48.777Z,34.12
2018-07-03T12:38:41.336Z,33.38
2018-07-03T12:39:41.386Z,34.56
2018-07-03T12:40:41.439Z,36.00
2018-07-03T12:41:41.516Z,36.59
2018-07-03T12:42:41.566Z,37.66
2018-07-03T12:44:41.648Z,36.65
2018-07-03T12:45:41.720Z,36.65
2018-07-03T12:46:41.973Z,37.37
2018-07-03T12:47:41.822Z,37.28
2018-07-03T12:48:41.876Z,36.60
2018-07-03T12:49:41.953Z,36.65
2018-07-03T12:50:41.961Z,37.62
2018-07-03T12:51:42.014Z,37.40
2018-07-03T12:52:42.066Z,37.25
2018-07-03T12:53:42.119Z,36.78
2018-07-03T12:54:42.170Z,36.65
2018-07-03T12:55:42.224Z,36.78
2018-07-03T12:56:42.275Z,37.27
2018-07-03T12:57:42.329Z,37.59
2018-07-03T12:58:42.380Z,38.13
2018-07-03T12:59:42.432Z,37.96
2018-07-03T13:00:42.522Z,37.44
2018-07-03T13:01:42.538Z,36.28
2018-07-03T13:02:42.591Z,35.99
2018-07-03T13:03:42.644Z,36.44
2018-07-03T13:04:42.697Z,37.09
2018-07-03T13:05:42.751Z,36.95
2018-07-03T13:06:42.803Z,35.72
2018-07-03T13:07:42.871Z,36.43
2018-07-03T13:08:42.908Z,37.69
2018-07-03T13:09:42.963Z,38.66
2018-07-03T13:10:43.249Z,39.54
2018-07-03T13:11:43.068Z,39.06
2018-07-03T13:12:43.126Z,38.74
2018-07-03T13:13:43.179Z,38.01
2018-07-03T13:14:43.226Z,37.28
2018-07-03T13:15:43.284Z,38.12
2018-07-03T13:16:43.333Z,37.51
2018-07-03T13:17:43.386Z,36.50
2018-07-03T13:18:43.438Z,36.31
2018-07-03T13:19:43.491Z,35.99
2018-07-03T13:20:43.552Z,35.87
2018-07-03T13:21:43.601Z,35.96
2018-07-03T13:22:43.648Z,36.20
2018-07-03T13:23:43.701Z,36.25
2018-07-03T13:24:43.753Z,35.84
2018-07-03T13:25:43.805Z,35.94
2018-07-03T13:26:43.858Z,35.59
2018-07-03T13:27:43.908Z,35.89
2018-07-03T13:28:43.959Z,36.59
2018-07-03T13:29:44.012Z,37.13
2018-07-03T13:30:44.062Z,37.06
2018-07-03T13:31:44.113Z,37.10
2018-07-03T13:32:44.165Z,36.95
2018-07-03T13:33:44.214Z,36.91
2018-07-03T13:34:44.266Z,35.89
2018-07-03T13:35:44.525Z,35.81
2018-07-03T13:36:44.370Z,35.16
2018-07-03T13:37:44.420Z,35.14
2018-07-03T13:38:44.469Z,35.07
2018-07-03T13:39:44.521Z,35.04
2018-07-03T13:40:44.572Z,35.92
2018-07-03T13:41:44.624Z,36.00
2018-07-03T13:42:44.672Z,35.29
2018-07-03T13:43:44.725Z,35.44
2018-07-03T13:44:44.774Z,35.38
2018-07-03T13:45:44.824Z,35.43
2018-07-03T13:46:44.872Z,35.22
2018-07-03T13:47:44.923Z,35.02
2018-07-03T13:48:44.983Z,34.75
2018-07-03T13:49:45.025Z,34.70
2018-07-03T13:50:45.073Z,34.66
2018-07-03T13:51:45.122Z,34.65
2018-07-03T13:52:45.172Z,34.65
2018-07-03T13:53:45.221Z,34.78
2018-07-03T13:54:45.269Z,34.75
2018-07-03T13:55:45.323Z,35.18
2018-07-03T13:56:45.368Z,35.74
2018-07-03T13:57:45.418Z,37.37
2018-07-03T13:58:45.467Z,38.59
2018-07-03T13:59:45.515Z,39.10
2018-07-03T14:00:45.565Z,39.32
2018-07-03T14:01:45.633Z,40.38
2018-07-03T14:02:45.663Z,41.17
2018-07-03T14:03:45.715Z,41.84
2018-07-03T14:04:45.765Z,41.23
2018-07-03T14:05:45.820Z,41.01
2018-07-03T14:06:45.884Z,40.12
2018-07-03T14:07:45.919Z,39.41
2018-07-03T14:08:45.982Z,39.72
2018-07-03T14:09:46.023Z,40.60
2018-07-03T14:10:46.075Z,41.80
2018-07-03T14:11:46.126Z,42.09
2018-07-03T14:12:46.181Z,42.96
2018-07-03T14:13:46.234Z,43.33
2018-07-03T14:14:46.286Z,43.30
2018-07-03T14:15:46.341Z,43.64
2018-07-03T14:16:46.395Z,44.06
2018-07-03T14:17:46.459Z,43.68
2018-07-03T14:18:46.502Z,42.95
2018-07-03T14:19:46.559Z,42.42